Buechel, Kentucky
Current Conditions -  °F | °C
As of 8:53 AM on Wednesday 22 Oct 2014 (Local Time) from KLOU Reporting Station
Clear Clear  
Wind Chill: 42°   Ceiling: Unl
Heat Index: 45°   Visibility: 10mi
Dew Point: 39°   Wind: 6mph
Humidity: 80%   Direction: 350°N
Pressure: 30.28"   Gusts: NA
Location:  38.1869°N, 85.6523°W
Report Text: KLOU 221253Z 35005KT 10SM CLR 07/04 A3028 RMK AO2 SLP256 T00720039
Loading
Personal Weather Stations






























Interactive Weather Map New forecast layout! Learn more

10-Day Weather Forecast

Advertisements
Track Severe Weather on mobile